sensor_id;sensor_type;location;lat;lon;timestamp;P1;durP1;ratioP1;P2;durP2;ratioP2
17345;SDS011;8790;53.590;10.002;2022-08-19T00:01:42;11.07;;;10.00;;
17345;SDS011;8790;53.590;10.002;2022-08-19T00:04:16;15.30;;;11.63;;
17345;SDS011;8790;53.590;10.002;2022-08-19T00:06:49;12.48;;;11.18;;
17345;SDS011;8790;53.590;10.002;2022-08-19T00:09:22;14.95;;;12.95;;
17345;SDS011;8790;53.590;10.002;2022-08-19T00:11:55;15.10;;;13.10;;
17345;SDS011;8790;53.590;10.002;2022-08-19T00:14:28;15.13;;;13.43;;
17345;SDS011;8790;53.590;10.002;2022-08-19T00:17:02;17.65;;;14.30;;
17345;SDS011;8790;53.590;10.002;2022-08-19T00:19:37;18.77;;;14.70;;
17345;SDS011;8790;53.590;10.002;2022-08-19T00:22:10;18.45;;;16.35;;
17345;SDS011;8790;53.590;10.002;2022-08-19T00:24:42;18.92;;;15.55;;
17345;SDS011;8790;53.590;10.002;2022-08-19T00:27:14;19.00;;;16.15;;
17345;SDS011;8790;53.590;10.002;2022-08-19T00:29:46;19.05;;;15.57;;
17345;SDS011;8790;53.590;10.002;2022-08-19T00:32:19;18.30;;;16.40;;
17345;SDS011;8790;53.590;10.002;2022-08-19T00:34:51;22.35;;;17.17;;
17345;SDS011;8790;53.590;10.002;2022-08-19T00:37:24;20.52;;;16.85;;
17345;SDS011;8790;53.590;10.002;2022-08-19T00:39:56;21.15;;;16.80;;
17345;SDS011;8790;53.590;10.002;2022-08-19T00:42:28;22.20;;;17.27;;
17345;SDS011;8790;53.590;10.002;2022-08-19T00:45:00;23.35;;;17.25;;
17345;SDS011;8790;53.590;10.002;2022-08-19T00:47:33;21.73;;;17.15;;
17345;SDS011;8790;53.590;10.002;2022-08-19T00:50:05;18.83;;;16.88;;
17345;SDS011;8790;53.590;10.002;2022-08-19T00:52:40;23.17;;;17.13;;
17345;SDS011;8790;53.590;10.002;2022-08-19T00:55:16;23.40;;;18.48;;
17345;SDS011;8790;53.590;10.002;2022-08-19T00:57:51;25.67;;;18.85;;
17345;SDS011;8790;53.590;10.002;2022-08-19T01:00:26;25.67;;;18.63;;
17345;SDS011;8790;53.590;10.002;2022-08-19T01:03:00;23.05;;;18.08;;
17345;SDS011;8790;53.590;10.002;2022-08-19T01:05:32;25.27;;;17.95;;
17345;SDS011;8790;53.590;10.002;2022-08-19T01:08:05;25.83;;;17.38;;
17345;SDS011;8790;53.590;10.002;2022-08-19T01:10:39;24.30;;;17.27;;
17345;SDS011;8790;53.590;10.002;2022-08-19T01:13:14;22.80;;;17.05;;
17345;SDS011;8790;53.590;10.002;2022-08-19T01:15:49;21.08;;;17.70;;
17345;SDS011;8790;53.590;10.002;2022-08-19T01:18:24;22.70;;;16.38;;
17345;SDS011;8790;53.590;10.002;2022-08-19T01:20:59;22.13;;;16.88;;
17345;SDS011;8790;53.590;10.002;2022-08-19T01:23:34;19.25;;;15.98;;
17345;SDS011;8790;53.590;10.002;2022-08-19T01:26:16;20.77;;;17.02;;
17345;SDS011;8790;53.590;10.002;2022-08-19T01:28:50;18.88;;;16.05;;
17345;SDS011;8790;53.590;10.002;2022-08-19T01:31:24;20.98;;;15.73;;
17345;SDS011;8790;53.590;10.002;2022-08-19T01:34:01;20.70;;;15.57;;
17345;SDS011;8790;53.590;10.002;2022-08-19T01:36:34;20.02;;;15.55;;
17345;SDS011;8790;53.590;10.002;2022-08-19T01:39:09;21.25;;;16.63;;
17345;SDS011;8790;53.590;10.002;2022-08-19T01:41:43;19.25;;;15.60;;
17345;SDS011;8790;53.590;10.002;2022-08-19T01:44:15;22.40;;;16.75;;
17345;SDS011;8790;53.590;10.002;2022-08-19T01:46:50;21.67;;;15.70;;
17345;SDS011;8790;53.590;10.002;2022-08-19T01:49:23;21.23;;;16.25;;
17345;SDS011;8790;53.590;10.002;2022-08-19T01:51:56;22.10;;;17.33;;
17345;SDS011;8790;53.590;10.002;2022-08-19T01:54:31;25.10;;;17.27;;
17345;SDS011;8790;53.590;10.002;2022-08-19T01:57:05;22.48;;;17.08;;
17345;SDS011;8790;53.590;10.002;2022-08-19T01:59:40;20.60;;;16.40;;
17345;SDS011;8790;53.590;10.002;2022-08-19T02:02:13;23.20;;;16.92;;
17345;SDS011;8790;53.590;10.002;2022-08-19T02:04:45;21.80;;;16.00;;
17345;SDS011;8790;53.590;10.002;2022-08-19T02:07:18;23.27;;;16.98;;
17345;SDS011;8790;53.590;10.002;2022-08-19T02:09:51;23.30;;;17.23;;
17345;SDS011;8790;53.590;10.002;2022-08-19T02:12:23;23.33;;;16.98;;
17345;SDS011;8790;53.590;10.002;2022-08-19T02:14:55;22.10;;;16.27;;
17345;SDS011;8790;53.590;10.002;2022-08-19T02:17:27;25.17;;;17.77;;
17345;SDS011;8790;53.590;10.002;2022-08-19T02:19:59;20.50;;;16.20;;
17345;SDS011;8790;53.590;10.002;2022-08-19T02:22:31;23.40;;;17.60;;
17345;SDS011;8790;53.590;10.002;2022-08-19T02:25:05;28.02;;;17.63;;
17345;SDS011;8790;53.590;10.002;2022-08-19T02:27:38;24.20;;;16.88;;
17345;SDS011;8790;53.590;10.002;2022-08-19T02:30:12;24.08;;;17.30;;
17345;SDS011;8790;53.590;10.002;2022-08-19T02:32:46;26.88;;;17.48;;
17345;SDS011;8790;53.590;10.002;2022-08-19T02:35:18;25.33;;;17.88;;
17345;SDS011;8790;53.590;10.002;2022-08-19T02:37:50;24.55;;;16.33;;
17345;SDS011;8790;53.590;10.002;2022-08-19T02:40:47;25.75;;;17.83;;
17345;SDS011;8790;53.590;10.002;2022-08-19T02:43:21;25.33;;;16.92;;
17345;SDS011;8790;53.590;10.002;2022-08-19T02:45:53;22.50;;;16.35;;
17345;SDS011;8790;53.590;10.002;2022-08-19T02:48:25;28.48;;;18.52;;
17345;SDS011;8790;53.590;10.002;2022-08-19T02:50:57;26.73;;;18.25;;
17345;SDS011;8790;53.590;10.002;2022-08-19T02:53:29;27.60;;;18.30;;
17345;SDS011;8790;53.590;10.002;2022-08-19T02:56:05;26.70;;;17.75;;
17345;SDS011;8790;53.590;10.002;2022-08-19T02:58:37;28.73;;;17.75;;
17345;SDS011;8790;53.590;10.002;2022-08-19T03:01:10;28.40;;;19.05;;
17345;SDS011;8790;53.590;10.002;2022-08-19T03:03:42;30.33;;;19.63;;
17345;SDS011;8790;53.590;10.002;2022-08-19T03:06:14;28.80;;;19.30;;
17345;SDS011;8790;53.590;10.002;2022-08-19T03:08:47;32.83;;;19.63;;
17345;SDS011;8790;53.590;10.002;2022-08-19T03:11:22;29.00;;;19.30;;
17345;SDS011;8790;53.590;10.002;2022-08-19T03:13:55;28.23;;;18.90;;
17345;SDS011;8790;53.590;10.002;2022-08-19T03:16:29;30.98;;;18.85;;
17345;SDS011;8790;53.590;10.002;2022-08-19T03:19:02;29.80;;;18.35;;
17345;SDS011;8790;53.590;10.002;2022-08-19T03:21:34;27.45;;;17.70;;
17345;SDS011;8790;53.590;10.002;2022-08-19T03:24:06;30.38;;;18.40;;
17345;SDS011;8790;53.590;10.002;2022-08-19T03:26:41;29.70;;;18.55;;
17345;SDS011;8790;53.590;10.002;2022-08-19T03:29:15;29.80;;;18.17;;
17345;SDS011;8790;53.590;10.002;2022-08-19T03:31:48;28.17;;;18.02;;
17345;SDS011;8790;53.590;10.002;2022-08-19T03:34:21;29.55;;;18.23;;
17345;SDS011;8790;53.590;10.002;2022-08-19T03:36:57;27.70;;;17.77;;
17345;SDS011;8790;53.590;10.002;2022-08-19T03:39:30;26.23;;;17.45;;
17345;SDS011;8790;53.590;10.002;2022-08-19T03:42:03;27.98;;;17.50;;
17345;SDS011;8790;53.590;10.002;2022-08-19T03:44:35;30.60;;;18.05;;
17345;SDS011;8790;53.590;10.002;2022-08-19T03:47:08;28.45;;;17.98;;
17345;SDS011;8790;53.590;10.002;2022-08-19T03:49:45;28.55;;;17.63;;
17345;SDS011;8790;53.590;10.002;2022-08-19T03:52:17;28.33;;;17.80;;
17345;SDS011;8790;53.590;10.002;2022-08-19T03:54:49;28.30;;;17.08;;
17345;SDS011;8790;53.590;10.002;2022-08-19T03:57:23;23.73;;;16.42;;
17345;SDS011;8790;53.590;10.002;2022-08-19T03:59:54;26.30;;;16.25;;
17345;SDS011;8790;53.590;10.002;2022-08-19T04:02:26;25.50;;;16.42;;
17345;SDS011;8790;53.590;10.002;2022-08-19T04:04:58;24.38;;;15.98;;
17345;SDS011;8790;53.590;10.002;2022-08-19T04:07:29;27.17;;;16.27;;
17345;SDS011;8790;53.590;10.002;2022-08-19T04:10:02;24.90;;;16.40;;
17345;SDS011;8790;53.590;10.002;2022-08-19T04:12:35;24.58;;;16.30;;
17345;SDS011;8790;53.590;10.002;2022-08-19T04:15:08;21.45;;;16.23;;
17345;SDS011;8790;53.590;10.002;2022-08-19T04:17:40;22.90;;;16.15;;
17345;SDS011;8790;53.590;10.002;2022-08-19T04:20:12;27.70;;;17.13;;
17345;SDS011;8790;53.590;10.002;2022-08-19T04:22:43;27.65;;;16.88;;
17345;SDS011;8790;53.590;10.002;2022-08-19T04:25:15;27.58;;;16.75;;
17345;SDS011;8790;53.590;10.002;2022-08-19T04:27:48;25.88;;;17.00;;
17345;SDS011;8790;53.590;10.002;2022-08-19T04:30:20;27.25;;;17.05;;
17345;SDS011;8790;53.590;10.002;2022-08-19T04:32:52;22.58;;;15.60;;
17345;SDS011;8790;53.590;10.002;2022-08-19T04:35:24;26.52;;;18.23;;
17345;SDS011;8790;53.590;10.002;2022-08-19T04:37:55;29.95;;;17.85;;
17345;SDS011;8790;53.590;10.002;2022-08-19T04:40:27;28.27;;;17.70;;
17345;SDS011;8790;53.590;10.002;2022-08-19T04:43:18;31.75;;;19.95;;
17345;SDS011;8790;53.590;10.002;2022-08-19T04:45:49;36.67;;;21.45;;
17345;SDS011;8790;53.590;10.002;2022-08-19T04:48:21;34.50;;;22.27;;
17345;SDS011;8790;53.590;10.002;2022-08-19T04:50:57;37.03;;;24.00;;
17345;SDS011;8790;53.590;10.002;2022-08-19T04:53:30;35.78;;;22.40;;
17345;SDS011;8790;53.590;10.002;2022-08-19T04:56:04;38.22;;;23.13;;
17345;SDS011;8790;53.590;10.002;2022-08-19T04:58:40;40.85;;;23.98;;
17345;SDS011;8790;53.590;10.002;2022-08-19T05:01:14;37.35;;;23.60;;
17345;SDS011;8790;53.590;10.002;2022-08-19T05:03:48;38.20;;;24.67;;
17345;SDS011;8790;53.590;10.002;2022-08-19T05:06:21;40.97;;;25.02;;
17345;SDS011;8790;53.590;10.002;2022-08-19T05:08:54;39.35;;;24.88;;
17345;SDS011;8790;53.590;10.002;2022-08-19T05:11:28;42.80;;;25.42;;
17345;SDS011;8790;53.590;10.002;2022-08-19T05:14:02;40.60;;;25.20;;
17345;SDS011;8790;53.590;10.002;2022-08-19T05:16:34;43.03;;;26.25;;
17345;SDS011;8790;53.590;10.002;2022-08-19T05:19:06;43.10;;;25.48;;
17345;SDS011;8790;53.590;10.002;2022-08-19T05:21:55;48.95;;;26.60;;
17345;SDS011;8790;53.590;10.002;2022-08-19T05:24:44;46.15;;;25.63;;
17345;SDS011;8790;53.590;10.002;2022-08-19T05:27:16;44.10;;;26.33;;
17345;SDS011;8790;53.590;10.002;2022-08-19T05:29:49;44.88;;;26.55;;
17345;SDS011;8790;53.590;10.002;2022-08-19T05:32:21;48.13;;;26.88;;
17345;SDS011;8790;53.590;10.002;2022-08-19T05:34:53;45.22;;;27.23;;
17345;SDS011;8790;53.590;10.002;2022-08-19T05:37:25;43.75;;;27.13;;
17345;SDS011;8790;53.590;10.002;2022-08-19T05:39:57;40.22;;;26.50;;
17345;SDS011;8790;53.590;10.002;2022-08-19T05:42:29;40.75;;;26.48;;
17345;SDS011;8790;53.590;10.002;2022-08-19T05:45:02;41.00;;;26.42;;
17345;SDS011;8790;53.590;10.002;2022-08-19T05:47:34;34.58;;;24.08;;
17345;SDS011;8790;53.590;10.002;2022-08-19T05:50:07;37.55;;;25.83;;
17345;SDS011;8790;53.590;10.002;2022-08-19T05:52:39;40.50;;;24.95;;
17345;SDS011;8790;53.590;10.002;2022-08-19T05:55:11;34.97;;;24.67;;
17345;SDS011;8790;53.590;10.002;2022-08-19T05:57:43;36.63;;;26.75;;
17345;SDS011;8790;53.590;10.002;2022-08-19T06:00:16;37.85;;;25.10;;
17345;SDS011;8790;53.590;10.002;2022-08-19T06:02:48;35.85;;;25.52;;
17345;SDS011;8790;53.590;10.002;2022-08-19T06:05:20;37.42;;;24.90;;
17345;SDS011;8790;53.590;10.002;2022-08-19T06:07:52;35.00;;;24.20;;
17345;SDS011;8790;53.590;10.002;2022-08-19T06:10:24;38.40;;;24.90;;
17345;SDS011;8790;53.590;10.002;2022-08-19T06:12:57;38.15;;;24.88;;
17345;SDS011;8790;53.590;10.002;2022-08-19T06:15:30;36.17;;;24.05;;
17345;SDS011;8790;53.590;10.002;2022-08-19T06:18:02;34.45;;;23.40;;
17345;SDS011;8790;53.590;10.002;2022-08-19T06:20:33;35.67;;;24.55;;
17345;SDS011;8790;53.590;10.002;2022-08-19T06:23:05;34.05;;;23.48;;
17345;SDS011;8790;53.590;10.002;2022-08-19T06:25:38;35.28;;;24.90;;
17345;SDS011;8790;53.590;10.002;2022-08-19T06:28:11;37.22;;;25.48;;
17345;SDS011;8790;53.590;10.002;2022-08-19T06:30:44;37.50;;;24.25;;
17345;SDS011;8790;53.590;10.002;2022-08-19T06:33:15;39.38;;;24.98;;
17345;SDS011;8790;53.590;10.002;2022-08-19T06:35:47;38.40;;;25.30;;
17345;SDS011;8790;53.590;10.002;2022-08-19T06:38:19;39.80;;;25.25;;
17345;SDS011;8790;53.590;10.002;2022-08-19T06:40:59;39.80;;;26.17;;
17345;SDS011;8790;53.590;10.002;2022-08-19T06:43:31;38.05;;;25.77;;
17345;SDS011;8790;53.590;10.002;2022-08-19T06:46:04;40.58;;;26.58;;
17345;SDS011;8790;53.590;10.002;2022-08-19T06:48:41;40.45;;;26.98;;
17345;SDS011;8790;53.590;10.002;2022-08-19T06:51:14;42.58;;;26.95;;
17345;SDS011;8790;53.590;10.002;2022-08-19T06:53:48;41.05;;;27.02;;
17345;SDS011;8790;53.590;10.002;2022-08-19T06:56:22;41.10;;;26.48;;
17345;SDS011;8790;53.590;10.002;2022-08-19T06:59:01;41.28;;;26.58;;
17345;SDS011;8790;53.590;10.002;2022-08-19T07:01:36;40.13;;;26.65;;
17345;SDS011;8790;53.590;10.002;2022-08-19T07:04:09;36.85;;;25.88;;
17345;SDS011;8790;53.590;10.002;2022-08-19T07:06:41;39.58;;;25.55;;
17345;SDS011;8790;53.590;10.002;2022-08-19T07:09:15;40.33;;;25.83;;
17345;SDS011;8790;53.590;10.002;2022-08-19T07:11:49;37.97;;;24.30;;
17345;SDS011;8790;53.590;10.002;2022-08-19T07:14:24;38.72;;;24.58;;
17345;SDS011;8790;53.590;10.002;2022-08-19T07:16:59;39.05;;;26.38;;
17345;SDS011;8790;53.590;10.002;2022-08-19T07:19:31;37.13;;;24.65;;
17345;SDS011;8790;53.590;10.002;2022-08-19T07:22:05;36.90;;;24.27;;
17345;SDS011;8790;53.590;10.002;2022-08-19T07:24:37;33.25;;;22.98;;
17345;SDS011;8790;53.590;10.002;2022-08-19T07:27:09;31.38;;;21.65;;
17345;SDS011;8790;53.590;10.002;2022-08-19T07:29:41;31.48;;;19.38;;
17345;SDS011;8790;53.590;10.002;2022-08-19T07:32:14;28.35;;;18.80;;
17345;SDS011;8790;53.590;10.002;2022-08-19T07:34:46;25.17;;;17.92;;
17345;SDS011;8790;53.590;10.002;2022-08-19T07:37:17;24.50;;;18.35;;
17345;SDS011;8790;53.590;10.002;2022-08-19T07:39:49;23.23;;;16.58;;
17345;SDS011;8790;53.590;10.002;2022-08-19T07:42:21;24.92;;;17.35;;
17345;SDS011;8790;53.590;10.002;2022-08-19T07:44:53;24.75;;;16.35;;
17345;SDS011;8790;53.590;10.002;2022-08-19T07:47:26;23.02;;;16.25;;
17345;SDS011;8790;53.590;10.002;2022-08-19T07:49:58;21.77;;;16.80;;
17345;SDS011;8790;53.590;10.002;2022-08-19T07:52:29;20.65;;;15.93;;
17345;SDS011;8790;53.590;10.002;2022-08-19T07:55:01;21.13;;;15.75;;
17345;SDS011;8790;53.590;10.002;2022-08-19T07:57:34;25.05;;;15.35;;
17345;SDS011;8790;53.590;10.002;2022-08-19T08:00:06;23.77;;;16.95;;
17345;SDS011;8790;53.590;10.002;2022-08-19T08:02:43;19.67;;;14.10;;
17345;SDS011;8790;53.590;10.002;2022-08-19T08:05:15;16.55;;;11.68;;
17345;SDS011;8790;53.590;10.002;2022-08-19T08:08:19;13.77;;;11.38;;
17345;SDS011;8790;53.590;10.002;2022-08-19T08:11:07;15.70;;;11.02;;
17345;SDS011;8790;53.590;10.002;2022-08-19T08:13:40;13.27;;;10.57;;
17345;SDS011;8790;53.590;10.002;2022-08-19T08:16:12;13.40;;;10.00;;
17345;SDS011;8790;53.590;10.002;2022-08-19T08:18:45;12.05;;;10.27;;
17345;SDS011;8790;53.590;10.002;2022-08-19T08:21:17;11.95;;;10.52;;
17345;SDS011;8790;53.590;10.002;2022-08-19T08:23:48;16.80;;;11.52;;
17345;SDS011;8790;53.590;10.002;2022-08-19T08:26:22;16.10;;;11.52;;
17345;SDS011;8790;53.590;10.002;2022-08-19T08:28:55;13.75;;;10.65;;
17345;SDS011;8790;53.590;10.002;2022-08-19T08:31:26;15.43;;;11.05;;
17345;SDS011;8790;53.590;10.002;2022-08-19T08:34:00;14.20;;;10.93;;
17345;SDS011;8790;53.590;10.002;2022-08-19T08:36:32;13.50;;;10.80;;
17345;SDS011;8790;53.590;10.002;2022-08-19T08:39:04;15.10;;;10.05;;
17345;SDS011;8790;53.590;10.002;2022-08-19T08:41:37;15.20;;;11.05;;
17345;SDS011;8790;53.590;10.002;2022-08-19T08:44:17;13.77;;;10.70;;
17345;SDS011;8790;53.590;10.002;2022-08-19T08:46:52;13.55;;;11.48;;
17345;SDS011;8790;53.590;10.002;2022-08-19T08:49:30;16.42;;;11.13;;
17345;SDS011;8790;53.590;10.002;2022-08-19T08:52:09;20.25;;;12.00;;
17345;SDS011;8790;53.590;10.002;2022-08-19T08:54:47;20.13;;;11.88;;
17345;SDS011;8790;53.590;10.002;2022-08-19T08:57:23;17.65;;;12.10;;
17345;SDS011;8790;53.590;10.002;2022-08-19T08:59:59;16.42;;;12.23;;
17345;SDS011;8790;53.590;10.002;2022-08-19T09:02:34;18.55;;;14.45;;
17345;SDS011;8790;53.590;10.002;2022-08-19T09:05:08;17.92;;;13.68;;
17345;SDS011;8790;53.590;10.002;2022-08-19T09:07:44;22.13;;;13.73;;
17345;SDS011;8790;53.590;10.002;2022-08-19T09:10:25;19.20;;;14.85;;
17345;SDS011;8790;53.590;10.002;2022-08-19T09:13:02;18.85;;;14.93;;
17345;SDS011;8790;53.590;10.002;2022-08-19T09:15:43;23.92;;;15.98;;
17345;SDS011;8790;53.590;10.002;2022-08-19T09:18:18;22.08;;;15.02;;
17345;SDS011;8790;53.590;10.002;2022-08-19T09:20:51;20.55;;;14.55;;
17345;SDS011;8790;53.590;10.002;2022-08-19T09:23:23;22.58;;;15.85;;
17345;SDS011;8790;53.590;10.002;2022-08-19T09:25:55;22.77;;;14.65;;
17345;SDS011;8790;53.590;10.002;2022-08-19T09:28:26;22.67;;;16.25;;
17345;SDS011;8790;53.590;10.002;2022-08-19T09:30:59;21.23;;;15.35;;
17345;SDS011;8790;53.590;10.002;2022-08-19T09:33:30;20.73;;;14.68;;
17345;SDS011;8790;53.590;10.002;2022-08-19T09:36:05;20.13;;;14.70;;
17345;SDS011;8790;53.590;10.002;2022-08-19T09:38:39;21.02;;;14.10;;
17345;SDS011;8790;53.590;10.002;2022-08-19T09:41:12;20.95;;;13.82;;
17345;SDS011;8790;53.590;10.002;2022-08-19T09:43:46;19.00;;;13.30;;
17345;SDS011;8790;53.590;10.002;2022-08-19T09:46:23;16.98;;;12.77;;
17345;SDS011;8790;53.590;10.002;2022-08-19T09:48:57;18.00;;;12.88;;
17345;SDS011;8790;53.590;10.002;2022-08-19T09:51:32;19.17;;;13.07;;
17345;SDS011;8790;53.590;10.002;2022-08-19T09:54:04;17.58;;;13.32;;
17345;SDS011;8790;53.590;10.002;2022-08-19T09:56:36;19.33;;;13.35;;
17345;SDS011;8790;53.590;10.002;2022-08-19T09:59:07;18.15;;;13.38;;
17345;SDS011;8790;53.590;10.002;2022-08-19T10:01:40;18.70;;;13.52;;
17345;SDS011;8790;53.590;10.002;2022-08-19T10:04:12;20.00;;;13.85;;
17345;SDS011;8790;53.590;10.002;2022-08-19T10:06:45;18.95;;;13.23;;
17345;SDS011;8790;53.590;10.002;2022-08-19T10:09:17;19.55;;;13.13;;
17345;SDS011;8790;53.590;10.002;2022-08-19T10:11:49;18.67;;;13.88;;
17345;SDS011;8790;53.590;10.002;2022-08-19T10:14:20;19.45;;;14.13;;
17345;SDS011;8790;53.590;10.002;2022-08-19T10:16:53;17.02;;;13.25;;
17345;SDS011;8790;53.590;10.002;2022-08-19T10:19:25;20.35;;;14.25;;
17345;SDS011;8790;53.590;10.002;2022-08-19T10:22:01;22.17;;;13.85;;
17345;SDS011;8790;53.590;10.002;2022-08-19T10:24:34;17.83;;;12.43;;
17345;SDS011;8790;53.590;10.002;2022-08-19T10:27:06;20.25;;;14.07;;
17345;SDS011;8790;53.590;10.002;2022-08-19T10:29:37;21.98;;;15.65;;
17345;SDS011;8790;53.590;10.002;2022-08-19T10:32:09;18.20;;;14.43;;
17345;SDS011;8790;53.590;10.002;2022-08-19T10:34:41;19.63;;;14.57;;
17345;SDS011;8790;53.590;10.002;2022-08-19T10:37:15;22.85;;;16.25;;
17345;SDS011;8790;53.590;10.002;2022-08-19T10:39:47;21.13;;;14.48;;
17345;SDS011;8790;53.590;10.002;2022-08-19T10:42:19;21.38;;;16.45;;
17345;SDS011;8790;53.590;10.002;2022-08-19T10:44:51;21.17;;;15.10;;
17345;SDS011;8790;53.590;10.002;2022-08-19T10:47:22;21.60;;;15.77;;
17345;SDS011;8790;53.590;10.002;2022-08-19T10:49:54;20.00;;;15.57;;
17345;SDS011;8790;53.590;10.002;2022-08-19T10:52:46;19.17;;;15.43;;
17345;SDS011;8790;53.590;10.002;2022-08-19T10:55:21;26.50;;;16.55;;
17345;SDS011;8790;53.590;10.002;2022-08-19T10:58:12;21.80;;;16.15;;
17345;SDS011;8790;53.590;10.002;2022-08-19T11:00:50;21.40;;;16.42;;
17345;SDS011;8790;53.590;10.002;2022-08-19T11:03:23;22.27;;;16.63;;
17345;SDS011;8790;53.590;10.002;2022-08-19T11:05:57;21.08;;;15.75;;
17345;SDS011;8790;53.590;10.002;2022-08-19T11:08:30;20.92;;;17.55;;
17345;SDS011;8790;53.590;10.002;2022-08-19T11:11:05;21.67;;;16.85;;
17345;SDS011;8790;53.590;10.002;2022-08-19T11:13:38;24.33;;;17.23;;
17345;SDS011;8790;53.590;10.002;2022-08-19T11:16:12;21.48;;;16.20;;
17345;SDS011;8790;53.590;10.002;2022-08-19T11:18:48;23.02;;;16.73;;
17345;SDS011;8790;53.590;10.002;2022-08-19T11:21:21;22.48;;;16.70;;
17345;SDS011;8790;53.590;10.002;2022-08-19T11:23:57;24.33;;;18.13;;
17345;SDS011;8790;53.590;10.002;2022-08-19T11:26:31;22.98;;;16.58;;
17345;SDS011;8790;53.590;10.002;2022-08-19T11:29:04;21.25;;;16.25;;
17345;SDS011;8790;53.590;10.002;2022-08-19T11:31:41;19.67;;;15.05;;
17345;SDS011;8790;53.590;10.002;2022-08-19T11:34:15;20.15;;;15.80;;
17345;SDS011;8790;53.590;10.002;2022-08-19T11:36:50;18.30;;;15.57;;
17345;SDS011;8790;53.590;10.002;2022-08-19T11:39:24;21.02;;;15.13;;
17345;SDS011;8790;53.590;10.002;2022-08-19T11:41:58;20.25;;;15.60;;
17345;SDS011;8790;53.590;10.002;2022-08-19T11:44:31;17.98;;;14.50;;
17345;SDS011;8790;53.590;10.002;2022-08-19T11:47:03;17.55;;;14.07;;
17345;SDS011;8790;53.590;10.002;2022-08-19T11:49:37;16.52;;;14.73;;
17345;SDS011;8790;53.590;10.002;2022-08-19T11:52:08;17.20;;;15.30;;
17345;SDS011;8790;53.590;10.002;2022-08-19T11:54:42;17.50;;;13.70;;
17345;SDS011;8790;53.590;10.002;2022-08-19T11:57:13;17.58;;;14.45;;
17345;SDS011;8790;53.590;10.002;2022-08-19T11:59:47;20.52;;;13.85;;
17345;SDS011;8790;53.590;10.002;2022-08-19T12:02:20;16.55;;;13.80;;
17345;SDS011;8790;53.590;10.002;2022-08-19T12:04:53;15.40;;;13.30;;
17345;SDS011;8790;53.590;10.002;2022-08-19T12:07:25;17.05;;;14.27;;
17345;SDS011;8790;53.590;10.002;2022-08-19T12:09:58;19.00;;;14.40;;
17345;SDS011;8790;53.590;10.002;2022-08-19T12:12:30;16.88;;;13.32;;
17345;SDS011;8790;53.590;10.002;2022-08-19T12:15:02;15.73;;;12.98;;
17345;SDS011;8790;53.590;10.002;2022-08-19T12:17:34;18.40;;;13.95;;
17345;SDS011;8790;53.590;10.002;2022-08-19T12:20:06;15.13;;;12.75;;
17345;SDS011;8790;53.590;10.002;2022-08-19T12:22:40;14.40;;;12.73;;
17345;SDS011;8790;53.590;10.002;2022-08-19T12:25:13;16.45;;;13.07;;
17345;SDS011;8790;53.590;10.002;2022-08-19T12:27:45;14.50;;;11.77;;
17345;SDS011;8790;53.590;10.002;2022-08-19T12:30:17;14.50;;;13.00;;
17345;SDS011;8790;53.590;10.002;2022-08-19T12:32:49;14.10;;;12.32;;
17345;SDS011;8790;53.590;10.002;2022-08-19T12:35:21;14.05;;;12.30;;
17345;SDS011;8790;53.590;10.002;2022-08-19T12:37:53;14.35;;;11.85;;
17345;SDS011;8790;53.590;10.002;2022-08-19T12:40:27;14.93;;;12.30;;
17345;SDS011;8790;53.590;10.002;2022-08-19T12:42:58;15.10;;;12.95;;
17345;SDS011;8790;53.590;10.002;2022-08-19T12:45:30;14.20;;;12.60;;
17345;SDS011;8790;53.590;10.002;2022-08-19T12:48:02;14.23;;;11.75;;
17345;SDS011;8790;53.590;10.002;2022-08-19T12:50:34;15.65;;;12.85;;
17345;SDS011;8790;53.590;10.002;2022-08-19T12:53:06;14.85;;;13.27;;
17345;SDS011;8790;53.590;10.002;2022-08-19T12:55:39;13.77;;;12.23;;
17345;SDS011;8790;53.590;10.002;2022-08-19T12:58:11;15.10;;;13.48;;
17345;SDS011;8790;53.590;10.002;2022-08-19T13:00:43;13.00;;;11.60;;
17345;SDS011;8790;53.590;10.002;2022-08-19T13:03:14;14.35;;;12.85;;
17345;SDS011;8790;53.590;10.002;2022-08-19T13:05:46;13.93;;;12.48;;
17345;SDS011;8790;53.590;10.002;2022-08-19T13:08:20;13.40;;;12.00;;
17345;SDS011;8790;53.590;10.002;2022-08-19T13:10:53;12.52;;;11.32;;
17345;SDS011;8790;53.590;10.002;2022-08-19T13:13:25;13.15;;;11.15;;
17345;SDS011;8790;53.590;10.002;2022-08-19T13:15:59;13.85;;;12.48;;
17345;SDS011;8790;53.590;10.002;2022-08-19T13:18:32;13.25;;;11.95;;
17345;SDS011;8790;53.590;10.002;2022-08-19T13:21:05;14.23;;;12.38;;
17345;SDS011;8790;53.590;10.002;2022-08-19T13:23:37;14.00;;;12.50;;
17345;SDS011;8790;53.590;10.002;2022-08-19T13:26:10;13.25;;;11.85;;
17345;SDS011;8790;53.590;10.002;2022-08-19T13:28:43;14.82;;;12.73;;
17345;SDS011;8790;53.590;10.002;2022-08-19T13:31:33;12.48;;;11.27;;
17345;SDS011;8790;53.590;10.002;2022-08-19T13:34:32;12.35;;;11.05;;
17345;SDS011;8790;53.590;10.002;2022-08-19T13:37:06;14.27;;;12.88;;
17345;SDS011;8790;53.590;10.002;2022-08-19T13:39:38;13.52;;;12.20;;
17345;SDS011;8790;53.590;10.002;2022-08-19T13:42:11;13.77;;;12.38;;
17345;SDS011;8790;53.590;10.002;2022-08-19T13:44:43;15.05;;;13.48;;
17345;SDS011;8790;53.590;10.002;2022-08-19T13:47:17;12.82;;;11.52;;
17345;SDS011;8790;53.590;10.002;2022-08-19T13:49:49;14.20;;;12.65;;
17345;SDS011;8790;53.590;10.002;2022-08-19T13:52:21;16.13;;;12.57;;
17345;SDS011;8790;53.590;10.002;2022-08-19T13:54:53;14.20;;;12.45;;
17345;SDS011;8790;53.590;10.002;2022-08-19T13:57:26;14.57;;;13.18;;
17345;SDS011;8790;53.590;10.002;2022-08-19T13:59:58;14.48;;;12.98;;
17345;SDS011;8790;53.590;10.002;2022-08-19T14:02:30;13.80;;;12.30;;
17345;SDS011;8790;53.590;10.002;2022-08-19T14:05:01;14.82;;;12.10;;
17345;SDS011;8790;53.590;10.002;2022-08-19T14:07:33;12.48;;;11.25;;
17345;SDS011;8790;53.590;10.002;2022-08-19T14:10:07;12.98;;;11.77;;
17345;SDS011;8790;53.590;10.002;2022-08-19T14:12:42;13.95;;;12.52;;
17345;SDS011;8790;53.590;10.002;2022-08-19T14:15:15;13.45;;;12.05;;
17345;SDS011;8790;53.590;10.002;2022-08-19T14:17:47;14.13;;;12.82;;
17345;SDS011;8790;53.590;10.002;2022-08-19T14:20:19;14.55;;;12.60;;
17345;SDS011;8790;53.590;10.002;2022-08-19T14:22:51;13.45;;;12.15;;
17345;SDS011;8790;53.590;10.002;2022-08-19T14:25:25;13.80;;;12.38;;
17345;SDS011;8790;53.590;10.002;2022-08-19T14:28:00;13.25;;;11.95;;
17345;SDS011;8790;53.590;10.002;2022-08-19T14:30:32;13.95;;;12.45;;
17345;SDS011;8790;53.590;10.002;2022-08-19T14:33:07;14.63;;;13.13;;
17345;SDS011;8790;53.590;10.002;2022-08-19T14:35:39;14.48;;;12.25;;
17345;SDS011;8790;53.590;10.002;2022-08-19T14:38:15;16.27;;;14.57;;
17345;SDS011;8790;53.590;10.002;2022-08-19T14:40:48;15.65;;;14.05;;
17345;SDS011;8790;53.590;10.002;2022-08-19T14:43:23;15.50;;;14.00;;
17345;SDS011;8790;53.590;10.002;2022-08-19T14:45:54;15.73;;;14.13;;
17345;SDS011;8790;53.590;10.002;2022-08-19T14:48:27;17.02;;;14.07;;
17345;SDS011;8790;53.590;10.002;2022-08-19T14:50:58;15.50;;;13.77;;
17345;SDS011;8790;53.590;10.002;2022-08-19T14:53:30;14.80;;;13.40;;
17345;SDS011;8790;53.590;10.002;2022-08-19T14:56:06;15.00;;;13.55;;
17345;SDS011;8790;53.590;10.002;2022-08-19T14:58:41;15.60;;;14.07;;